sensor_id;sensor_type;location;lat;lon;timestamp;pressure;altitude;pressure_sealevel;temperature;humidity
13800;BME280;6971;50.028;9.258;2023-07-13T00:03:38;99314.22;;;15.15;100.00
13800;BME280;6971;50.028;9.258;2023-07-13T00:08:41;99320.66;;;14.99;100.00
13800;BME280;6971;50.028;9.258;2023-07-13T00:13:42;99317.59;;;14.93;100.00
13800;BME280;6971;50.028;9.258;2023-07-13T00:18:42;99314.50;;;14.74;100.00
13800;BME280;6971;50.028;9.258;2023-07-13T00:23:43;99320.78;;;14.60;100.00
13800;BME280;6971;50.028;9.258;2023-07-13T00:28:43;99327.53;;;14.40;100.00
13800;BME280;6971;50.028;9.258;2023-07-13T00:33:44;99329.91;;;14.32;100.00
13800;BME280;6971;50.028;9.258;2023-07-13T00:38:44;99328.88;;;14.21;100.00
13800;BME280;6971;50.028;9.258;2023-07-13T00:43:45;99331.41;;;14.10;100.00
13800;BME280;6971;50.028;9.258;2023-07-13T00:48:47;99328.88;;;14.08;100.00
13800;BME280;6971;50.028;9.258;2023-07-13T00:53:49;99311.16;;;14.22;100.00
13800;BME280;6971;50.028;9.258;2023-07-13T00:58:51;99319.94;;;14.22;100.00
13800;BME280;6971;50.028;9.258;2023-07-13T01:03:52;99324.41;;;14.22;100.00
13800;BME280;6971;50.028;9.258;2023-07-13T01:08:55;99315.09;;;14.16;100.00
13800;BME280;6971;50.028;9.258;2023-07-13T01:13:57;99318.91;;;13.99;100.00
13800;BME280;6971;50.028;9.258;2023-07-13T01:18:58;99327.50;;;13.90;100.00
13800;BME280;6971;50.028;9.258;2023-07-13T01:23:59;99326.38;;;13.81;100.00
13800;BME280;6971;50.028;9.258;2023-07-13T01:28:59;99332.31;;;13.72;100.00
13800;BME280;6971;50.028;9.258;2023-07-13T01:34:00;99337.38;;;13.75;100.00
13800;BME280;6971;50.028;9.258;2023-07-13T01:39:00;99346.69;;;13.67;100.00
13800;BME280;6971;50.028;9.258;2023-07-13T01:44:01;99336.00;;;13.82;100.00
13800;BME280;6971;50.028;9.258;2023-07-13T01:49:04;99340.53;;;13.67;100.00
13800;BME280;6971;50.028;9.258;2023-07-13T01:54:04;99341.19;;;13.57;100.00
13800;BME280;6971;50.028;9.258;2023-07-13T01:59:05;99341.97;;;13.45;100.00
13800;BME280;6971;50.028;9.258;2023-07-13T02:04:05;99340.94;;;13.48;100.00
13800;BME280;6971;50.028;9.258;2023-07-13T02:09:05;99357.63;;;13.35;100.00
13800;BME280;6971;50.028;9.258;2023-07-13T02:14:05;99354.88;;;13.37;100.00
13800;BME280;6971;50.028;9.258;2023-07-13T02:19:06;99370.66;;;13.38;100.00
13800;BME280;6971;50.028;9.258;2023-07-13T02:24:06;99361.09;;;13.23;100.00
13800;BME280;6971;50.028;9.258;2023-07-13T02:29:07;99370.84;;;13.35;100.00
13800;BME280;6971;50.028;9.258;2023-07-13T02:34:07;99373.91;;;13.29;100.00
13800;BME280;6971;50.028;9.258;2023-07-13T02:39:15;99364.22;;;13.15;100.00
13800;BME280;6971;50.028;9.258;2023-07-13T02:44:16;99368.59;;;13.16;100.00
13800;BME280;6971;50.028;9.258;2023-07-13T02:49:16;99382.28;;;13.23;100.00
13800;BME280;6971;50.028;9.258;2023-07-13T02:54:17;99387.91;;;13.31;100.00
13800;BME280;6971;50.028;9.258;2023-07-13T02:59:17;99390.88;;;13.39;100.00
13800;BME280;6971;50.028;9.258;2023-07-13T03:04:17;99399.66;;;13.40;100.00
13800;BME280;6971;50.028;9.258;2023-07-13T03:09:19;99388.66;;;13.33;100.00
13800;BME280;6971;50.028;9.258;2023-07-13T03:14:20;99385.56;;;13.26;100.00
13800;BME280;6971;50.028;9.258;2023-07-13T03:19:21;99391.03;;;13.23;100.00
13800;BME280;6971;50.028;9.258;2023-07-13T03:24:21;99398.09;;;13.10;100.00
13800;BME280;6971;50.028;9.258;2023-07-13T03:29:23;99404.44;;;13.07;100.00
13800;BME280;6971;50.028;9.258;2023-07-13T03:34:23;99414.81;;;13.10;100.00
13800;BME280;6971;50.028;9.258;2023-07-13T03:39:24;99414.13;;;13.21;100.00
13800;BME280;6971;50.028;9.258;2023-07-13T03:44:24;99423.84;;;13.21;100.00
13800;BME280;6971;50.028;9.258;2023-07-13T03:49:25;99426.25;;;13.38;100.00
13800;BME280;6971;50.028;9.258;2023-07-13T03:54:25;99430.09;;;13.47;100.00
13800;BME280;6971;50.028;9.258;2023-07-13T03:59:25;99435.75;;;13.28;100.00
13800;BME280;6971;50.028;9.258;2023-07-13T04:04:26;99435.19;;;13.23;100.00
13800;BME280;6971;50.028;9.258;2023-07-13T04:09:26;99437.69;;;13.11;100.00
13800;BME280;6971;50.028;9.258;2023-07-13T04:14:26;99437.59;;;13.13;100.00
13800;BME280;6971;50.028;9.258;2023-07-13T04:19:26;99443.16;;;13.08;100.00
13800;BME280;6971;50.028;9.258;2023-07-13T04:24:27;99446.16;;;13.16;100.00
13800;BME280;6971;50.028;9.258;2023-07-13T04:29:27;99461.53;;;12.97;100.00
13800;BME280;6971;50.028;9.258;2023-07-13T04:34:27;99461.63;;;12.95;100.00
13800;BME280;6971;50.028;9.258;2023-07-13T04:39:28;99462.22;;;12.86;100.00
13800;BME280;6971;50.028;9.258;2023-07-13T04:44:30;99463.91;;;12.87;100.00
13800;BME280;6971;50.028;9.258;2023-07-13T04:49:31;99468.06;;;12.91;100.00
13800;BME280;6971;50.028;9.258;2023-07-13T04:54:31;99468.16;;;12.89;100.00
13800;BME280;6971;50.028;9.258;2023-07-13T04:59:32;99470.50;;;12.94;100.00
13800;BME280;6971;50.028;9.258;2023-07-13T05:04:33;99468.25;;;12.88;100.00
13800;BME280;6971;50.028;9.258;2023-07-13T05:09:33;99455.97;;;12.87;100.00
13800;BME280;6971;50.028;9.258;2023-07-13T05:14:34;99462.31;;;12.84;100.00
13800;BME280;6971;50.028;9.258;2023-07-13T05:19:34;99462.66;;;12.92;100.00
13800;BME280;6971;50.028;9.258;2023-07-13T05:24:49;99457.97;;;13.11;100.00
13800;BME280;6971;50.028;9.258;2023-07-13T05:29:49;99456.19;;;13.11;100.00
13800;BME280;6971;50.028;9.258;2023-07-13T05:34:52;99443.94;;;13.10;100.00
13800;BME280;6971;50.028;9.258;2023-07-13T05:39:52;99455.69;;;13.19;100.00
13800;BME280;6971;50.028;9.258;2023-07-13T05:44:53;99464.84;;;13.28;100.00
13800;BME280;6971;50.028;9.258;2023-07-13T05:49:53;99456.41;;;13.36;100.00
13800;BME280;6971;50.028;9.258;2023-07-13T05:54:53;99469.13;;;13.58;100.00
13800;BME280;6971;50.028;9.258;2023-07-13T05:59:54;99481.25;;;13.88;100.00
13800;BME280;6971;50.028;9.258;2023-07-13T06:05:08;99484.19;;;14.11;100.00
13800;BME280;6971;50.028;9.258;2023-07-13T06:10:09;99496.56;;;14.49;100.00
13800;BME280;6971;50.028;9.258;2023-07-13T06:15:11;99494.44;;;14.81;100.00
13800;BME280;6971;50.028;9.258;2023-07-13T06:20:12;99496.75;;;14.98;100.00
13800;BME280;6971;50.028;9.258;2023-07-13T06:25:12;99502.88;;;15.12;100.00
13800;BME280;6971;50.028;9.258;2023-07-13T06:30:12;99505.41;;;15.26;100.00
13800;BME280;6971;50.028;9.258;2023-07-13T06:35:13;99512.22;;;15.42;100.00
13800;BME280;6971;50.028;9.258;2023-07-13T06:40:13;99507.97;;;16.13;80.83
13800;BME280;6971;50.028;9.258;2023-07-13T06:45:14;99527.03;;;16.54;75.44
13800;BME280;6971;50.028;9.258;2023-07-13T06:50:14;99527.03;;;17.00;71.03
13800;BME280;6971;50.028;9.258;2023-07-13T06:55:15;99526.09;;;17.12;69.27
13800;BME280;6971;50.028;9.258;2023-07-13T07:00:15;99525.69;;;17.28;68.28
13800;BME280;6971;50.028;9.258;2023-07-13T07:05:16;99524.72;;;17.29;67.88
13800;BME280;6971;50.028;9.258;2023-07-13T07:10:17;99538.59;;;17.44;66.61
13800;BME280;6971;50.028;9.258;2023-07-13T07:15:18;99551.94;;;17.44;65.91
13800;BME280;6971;50.028;9.258;2023-07-13T07:20:18;99543.16;;;17.65;64.19
13800;BME280;6971;50.028;9.258;2023-07-13T07:25:20;99543.03;;;17.67;64.58
13800;BME280;6971;50.028;9.258;2023-07-13T07:30:20;99543.53;;;17.93;61.92
13800;BME280;6971;50.028;9.258;2023-07-13T07:35:21;99543.13;;;18.09;62.57
13800;BME280;6971;50.028;9.258;2023-07-13T07:40:21;99548.72;;;18.27;60.60
13800;BME280;6971;50.028;9.258;2023-07-13T07:45:21;99551.59;;;18.36;60.83
13800;BME280;6971;50.028;9.258;2023-07-13T07:50:21;99555.13;;;18.68;59.98
13800;BME280;6971;50.028;9.258;2023-07-13T07:55:22;99552.44;;;20.01;55.71
13800;BME280;6971;50.028;9.258;2023-07-13T08:00:23;99557.44;;;20.63;51.48
13800;BME280;6971;50.028;9.258;2023-07-13T08:05:23;99566.41;;;21.66;50.29
13800;BME280;6971;50.028;9.258;2023-07-13T08:10:23;99566.00;;;22.52;45.67
13800;BME280;6971;50.028;9.258;2023-07-13T08:15:24;99578.00;;;22.66;45.03
13800;BME280;6971;50.028;9.258;2023-07-13T08:20:24;99561.03;;;22.92;45.86
13800;BME280;6971;50.028;9.258;2023-07-13T08:25:24;99579.22;;;23.06;45.89
13800;BME280;6971;50.028;9.258;2023-07-13T08:30:25;99570.75;;;22.93;44.83
13800;BME280;6971;50.028;9.258;2023-07-13T08:35:25;99579.16;;;23.76;45.05
13800;BME280;6971;50.028;9.258;2023-07-13T08:40:27;99571.06;;;23.68;43.65
13800;BME280;6971;50.028;9.258;2023-07-13T08:45:45;99562.16;;;23.76;42.37
13800;BME280;6971;50.028;9.258;2023-07-13T08:50:58;99567.91;;;23.97;42.80
13800;BME280;6971;50.028;9.258;2023-07-13T08:56:00;99573.56;;;24.77;42.53
13800;BME280;6971;50.028;9.258;2023-07-13T09:01:12;99555.97;;;22.89;45.11
13800;BME280;6971;50.028;9.258;2023-07-13T09:06:16;99572.91;;;23.59;44.36
13800;BME280;6971;50.028;9.258;2023-07-13T09:16:21;99559.31;;;24.69;43.07
13800;BME280;6971;50.028;9.258;2023-07-13T09:21:25;99557.75;;;23.50;43.62
13800;BME280;6971;50.028;9.258;2023-07-13T09:26:29;99555.44;;;23.88;43.17
13800;BME280;6971;50.028;9.258;2023-07-13T09:31:37;99562.22;;;24.17;42.51
13800;BME280;6971;50.028;9.258;2023-07-13T09:36:39;99574.31;;;23.96;40.42
13800;BME280;6971;50.028;9.258;2023-07-13T09:42:01;99558.34;;;22.39;41.76
13800;BME280;6971;50.028;9.258;2023-07-13T09:47:18;99562.34;;;22.88;42.96
13800;BME280;6971;50.028;9.258;2023-07-13T09:52:19;99548.81;;;22.71;42.91
13800;BME280;6971;50.028;9.258;2023-07-13T09:57:23;99560.19;;;22.91;42.97
13800;BME280;6971;50.028;9.258;2023-07-13T10:02:35;99566.34;;;22.84;44.65
13800;BME280;6971;50.028;9.258;2023-07-13T10:07:39;99576.44;;;22.55;43.52
13800;BME280;6971;50.028;9.258;2023-07-13T10:12:39;99572.47;;;22.94;42.69
13800;BME280;6971;50.028;9.258;2023-07-13T10:17:40;99571.81;;;24.36;40.67
13800;BME280;6971;50.028;9.258;2023-07-13T10:23:02;99579.16;;;23.84;39.82
13800;BME280;6971;50.028;9.258;2023-07-13T10:28:23;99584.50;;;23.68;40.12
13800;BME280;6971;50.028;9.258;2023-07-13T10:33:25;99576.59;;;23.50;41.85
13800;BME280;6971;50.028;9.258;2023-07-13T10:38:32;99574.75;;;23.58;40.40
13800;BME280;6971;50.028;9.258;2023-07-13T10:43:36;99565.38;;;23.79;40.97
13800;BME280;6971;50.028;9.258;2023-07-13T10:48:40;99571.25;;;23.83;40.68
13800;BME280;6971;50.028;9.258;2023-07-13T10:53:42;99581.53;;;23.79;39.71
13800;BME280;6971;50.028;9.258;2023-07-13T10:58:43;99576.13;;;24.71;39.91
13800;BME280;6971;50.028;9.258;2023-07-13T11:03:55;99578.84;;;23.28;41.19
13800;BME280;6971;50.028;9.258;2023-07-13T11:09:17;99566.44;;;24.20;41.03
13800;BME280;6971;50.028;9.258;2023-07-13T11:14:35;99554.06;;;23.16;41.19
13800;BME280;6971;50.028;9.258;2023-07-13T11:19:39;99561.78;;;23.11;40.93
13800;BME280;6971;50.028;9.258;2023-07-13T11:25:02;99557.81;;;23.23;41.40
13800;BME280;6971;50.028;9.258;2023-07-13T11:35:26;99553.28;;;24.08;39.62
13800;BME280;6971;50.028;9.258;2023-07-13T11:40:29;99562.88;;;25.81;36.97
13800;BME280;6971;50.028;9.258;2023-07-13T11:45:30;99535.31;;;24.34;38.21
13800;BME280;6971;50.028;9.258;2023-07-13T11:50:31;99545.69;;;23.87;40.53
13800;BME280;6971;50.028;9.258;2023-07-13T11:55:31;99543.84;;;23.79;39.33
13800;BME280;6971;50.028;9.258;2023-07-13T12:00:32;99540.81;;;23.91;38.79
13800;BME280;6971;50.028;9.258;2023-07-13T12:05:33;99545.38;;;25.13;38.25
13800;BME280;6971;50.028;9.258;2023-07-13T12:10:35;99554.25;;;24.66;37.67
13800;BME280;6971;50.028;9.258;2023-07-13T12:15:43;99540.09;;;24.72;36.24
13800;BME280;6971;50.028;9.258;2023-07-13T12:20:46;99543.16;;;23.69;39.03
13800;BME280;6971;50.028;9.258;2023-07-13T12:25:48;99544.84;;;23.70;39.11
13800;BME280;6971;50.028;9.258;2023-07-13T12:30:49;99549.75;;;23.23;38.73
13800;BME280;6971;50.028;9.258;2023-07-13T12:35:51;99548.03;;;23.14;39.15
13800;BME280;6971;50.028;9.258;2023-07-13T12:40:52;99551.59;;;23.91;39.15
13800;BME280;6971;50.028;9.258;2023-07-13T12:46:05;99551.22;;;23.60;38.65
13800;BME280;6971;50.028;9.258;2023-07-13T12:51:15;99555.63;;;23.27;40.44
13800;BME280;6971;50.028;9.258;2023-07-13T12:56:20;99557.94;;;23.13;39.13
13800;BME280;6971;50.028;9.258;2023-07-13T13:01:23;99558.78;;;22.79;39.88
13800;BME280;6971;50.028;9.258;2023-07-13T13:06:28;99563.97;;;23.07;40.09
13800;BME280;6971;50.028;9.258;2023-07-13T13:11:31;99551.38;;;23.07;39.99
13800;BME280;6971;50.028;9.258;2023-07-13T13:16:34;99567.53;;;23.59;39.93
13800;BME280;6971;50.028;9.258;2023-07-13T13:21:35;99564.81;;;23.16;39.83
13800;BME280;6971;50.028;9.258;2023-07-13T13:26:35;99558.84;;;22.95;39.70
13800;BME280;6971;50.028;9.258;2023-07-13T13:31:36;99564.50;;;23.19;39.13
13800;BME280;6971;50.028;9.258;2023-07-13T13:36:36;99571.91;;;23.17;39.90
13800;BME280;6971;50.028;9.258;2023-07-13T13:41:36;99562.16;;;23.24;40.81
13800;BME280;6971;50.028;9.258;2023-07-13T13:46:37;99562.13;;;23.16;40.04
13800;BME280;6971;50.028;9.258;2023-07-13T13:51:37;99574.06;;;23.13;39.81
13800;BME280;6971;50.028;9.258;2023-07-13T13:56:37;99572.53;;;23.45;39.72
13800;BME280;6971;50.028;9.258;2023-07-13T14:01:39;99569.72;;;23.20;40.15
13800;BME280;6971;50.028;9.258;2023-07-13T14:06:40;99579.06;;;23.34;40.19
13800;BME280;6971;50.028;9.258;2023-07-13T14:11:41;99575.56;;;23.07;40.06
13800;BME280;6971;50.028;9.258;2023-07-13T14:16:45;99578.09;;;23.17;40.01
13800;BME280;6971;50.028;9.258;2023-07-13T14:21:46;99576.31;;;23.26;40.01
13800;BME280;6971;50.028;9.258;2023-07-13T14:26:49;99588.34;;;23.14;40.03
13800;BME280;6971;50.028;9.258;2023-07-13T14:31:49;99586.19;;;23.26;40.39
13800;BME280;6971;50.028;9.258;2023-07-13T14:36:50;99589.09;;;23.32;40.81
13800;BME280;6971;50.028;9.258;2023-07-13T14:41:55;99587.34;;;23.58;40.44
13800;BME280;6971;50.028;9.258;2023-07-13T14:46:57;99585.44;;;23.42;40.99
13800;BME280;6971;50.028;9.258;2023-07-13T14:52:03;99586.91;;;23.28;40.12
13800;BME280;6971;50.028;9.258;2023-07-13T14:57:26;99582.19;;;23.30;39.62
13800;BME280;6971;50.028;9.258;2023-07-13T15:02:29;99582.78;;;23.50;39.87
13800;BME280;6971;50.028;9.258;2023-07-13T15:07:30;99581.19;;;23.91;40.02
13800;BME280;6971;50.028;9.258;2023-07-13T15:12:30;99581.44;;;23.54;40.81
13800;BME280;6971;50.028;9.258;2023-07-13T15:17:40;99582.25;;;23.38;39.60
13800;BME280;6971;50.028;9.258;2023-07-13T15:22:43;99572.59;;;23.27;40.23
13800;BME280;6971;50.028;9.258;2023-07-13T15:27:44;99566.91;;;23.30;39.46
13800;BME280;6971;50.028;9.258;2023-07-13T15:32:46;99567.38;;;23.60;39.16
13800;BME280;6971;50.028;9.258;2023-07-13T15:37:47;99570.03;;;23.52;39.24
13800;BME280;6971;50.028;9.258;2023-07-13T15:42:48;99573.91;;;23.50;38.54
13800;BME280;6971;50.028;9.258;2023-07-13T15:47:49;99584.34;;;23.69;39.08
13800;BME280;6971;50.028;9.258;2023-07-13T15:52:52;99579.31;;;23.75;37.50
13800;BME280;6971;50.028;9.258;2023-07-13T15:57:52;99576.03;;;23.46;39.38
13800;BME280;6971;50.028;9.258;2023-07-13T16:02:53;99571.38;;;23.13;39.43
13800;BME280;6971;50.028;9.258;2023-07-13T16:07:54;99560.75;;;23.03;39.63
13800;BME280;6971;50.028;9.258;2023-07-13T16:12:59;99548.16;;;23.55;39.40
13800;BME280;6971;50.028;9.258;2023-07-13T16:18:00;99557.28;;;23.63;38.37
13800;BME280;6971;50.028;9.258;2023-07-13T16:23:01;99565.47;;;23.53;38.86
13800;BME280;6971;50.028;9.258;2023-07-13T16:28:03;99560.31;;;23.68;39.70
13800;BME280;6971;50.028;9.258;2023-07-13T16:33:06;99563.59;;;23.37;40.24
13800;BME280;6971;50.028;9.258;2023-07-13T16:38:16;99563.44;;;23.38;41.09
13800;BME280;6971;50.028;9.258;2023-07-13T16:43:18;99570.75;;;23.71;39.77
13800;BME280;6971;50.028;9.258;2023-07-13T16:48:24;99579.56;;;23.38;40.11
13800;BME280;6971;50.028;9.258;2023-07-13T16:53:28;99574.38;;;23.45;40.80
13800;BME280;6971;50.028;9.258;2023-07-13T16:58:30;99583.03;;;23.30;41.53
13800;BME280;6971;50.028;9.258;2023-07-13T17:03:31;99572.59;;;22.84;41.47
13800;BME280;6971;50.028;9.258;2023-07-13T17:08:32;99563.53;;;22.85;41.71
13800;BME280;6971;50.028;9.258;2023-07-13T17:13:33;99571.00;;;23.08;42.60
13800;BME280;6971;50.028;9.258;2023-07-13T17:18:36;99578.59;;;23.13;41.65
13800;BME280;6971;50.028;9.258;2023-07-13T17:23:36;99577.72;;;23.04;42.03
13800;BME280;6971;50.028;9.258;2023-07-13T17:28:38;99575.94;;;22.86;41.39
13800;BME280;6971;50.028;9.258;2023-07-13T17:33:39;99581.34;;;22.94;40.94
13800;BME280;6971;50.028;9.258;2023-07-13T17:38:42;99587.28;;;23.06;40.76
13800;BME280;6971;50.028;9.258;2023-07-13T17:43:44;99585.09;;;23.02;41.55
13800;BME280;6971;50.028;9.258;2023-07-13T17:48:45;99587.28;;;22.53;41.54
13800;BME280;6971;50.028;9.258;2023-07-13T17:53:46;99586.19;;;22.38;42.59
13800;BME280;6971;50.028;9.258;2023-07-13T17:58:46;99589.34;;;22.15;42.51
13800;BME280;6971;50.028;9.258;2023-07-13T18:03:50;99593.94;;;22.04;43.43
13800;BME280;6971;50.028;9.258;2023-07-13T18:08:57;99589.50;;;21.95;42.17
13800;BME280;6971;50.028;9.258;2023-07-13T18:13:57;99600.84;;;21.89;43.00
13800;BME280;6971;50.028;9.258;2023-07-13T18:18:59;99608.16;;;21.69;42.98
13800;BME280;6971;50.028;9.258;2023-07-13T18:24:01;99596.84;;;21.75;42.85
13800;BME280;6971;50.028;9.258;2023-07-13T18:29:04;99609.69;;;21.71;42.89
13800;BME280;6971;50.028;9.258;2023-07-13T18:34:05;99600.56;;;21.64;43.67
13800;BME280;6971;50.028;9.258;2023-07-13T18:39:12;99603.06;;;21.47;44.00
13800;BME280;6971;50.028;9.258;2023-07-13T18:44:13;99598.25;;;21.51;44.25
13800;BME280;6971;50.028;9.258;2023-07-13T18:49:13;99596.81;;;21.29;48.52
13800;BME280;6971;50.028;9.258;2023-07-13T18:54:14;99583.28;;;20.92;53.08
13800;BME280;6971;50.028;9.258;2023-07-13T18:59:14;99586.22;;;20.41;55.65
13800;BME280;6971;50.028;9.258;2023-07-13T19:04:28;99593.53;;;20.00;57.57
13800;BME280;6971;50.028;9.258;2023-07-13T19:09:29;99602.16;;;19.52;59.35
13800;BME280;6971;50.028;9.258;2023-07-13T19:14:29;99598.53;;;19.12;60.96
13800;BME280;6971;50.028;9.258;2023-07-13T19:19:30;99602.41;;;18.77;61.72
13800;BME280;6971;50.028;9.258;2023-07-13T19:24:31;99606.75;;;18.57;62.59
13800;BME280;6971;50.028;9.258;2023-07-13T19:29:31;99600.06;;;18.20;64.58
13800;BME280;6971;50.028;9.258;2023-07-13T19:34:36;99615.81;;;17.79;66.16
13800;BME280;6971;50.028;9.258;2023-07-13T19:39:38;99624.31;;;17.49;67.52
13800;BME280;6971;50.028;9.258;2023-07-13T19:44:39;99628.13;;;17.13;68.89
13800;BME280;6971;50.028;9.258;2023-07-13T19:49:41;99631.78;;;16.87;70.27
13800;BME280;6971;50.028;9.258;2023-07-13T19:54:44;99639.84;;;16.63;71.20
13800;BME280;6971;50.028;9.258;2023-07-13T19:59:46;99641.66;;;16.26;72.47
13800;BME280;6971;50.028;9.258;2023-07-13T20:04:52;99645.41;;;15.99;74.29
13800;BME280;6971;50.028;9.258;2023-07-13T20:09:52;99647.84;;;15.89;74.03
13800;BME280;6971;50.028;9.258;2023-07-13T20:14:54;99666.66;;;15.62;75.47
13800;BME280;6971;50.028;9.258;2023-07-13T20:19:54;99673.59;;;15.38;77.30
13800;BME280;6971;50.028;9.258;2023-07-13T20:24:55;99667.56;;;15.23;78.25
13800;BME280;6971;50.028;9.258;2023-07-13T20:29:56;99665.13;;;15.07;79.51
13800;BME280;6971;50.028;9.258;2023-07-13T20:34:57;99669.56;;;14.94;79.92
13800;BME280;6971;50.028;9.258;2023-07-13T20:39:59;99678.97;;;14.72;82.17
13800;BME280;6971;50.028;9.258;2023-07-13T20:44:59;99680.50;;;14.61;83.35
13800;BME280;6971;50.028;9.258;2023-07-13T20:49:59;99680.91;;;14.42;84.39
13800;BME280;6971;50.028;9.258;2023-07-13T20:55:08;99689.22;;;14.23;85.54
13800;BME280;6971;50.028;9.258;2023-07-13T21:00:17;99686.72;;;14.07;88.05
13800;BME280;6971;50.028;9.258;2023-07-13T21:05:23;99682.50;;;13.90;88.90
13800;BME280;6971;50.028;9.258;2023-07-13T21:10:27;99684.13;;;13.78;89.88
13800;BME280;6971;50.028;9.258;2023-07-13T21:15:31;99694.53;;;13.66;91.56
13800;BME280;6971;50.028;9.258;2023-07-13T21:20:35;99693.41;;;13.56;93.23
13800;BME280;6971;50.028;9.258;2023-07-13T21:25:36;99690.56;;;13.44;93.72
13800;BME280;6971;50.028;9.258;2023-07-13T21:30:40;99692.63;;;13.25;95.83
13800;BME280;6971;50.028;9.258;2023-07-13T21:35:42;99694.16;;;13.14;97.81
13800;BME280;6971;50.028;9.258;2023-07-13T21:40:44;99697.06;;;13.10;98.93
13800;BME280;6971;50.028;9.258;2023-07-13T21:45:46;99703.56;;;13.04;99.26
13800;BME280;6971;50.028;9.258;2023-07-13T21:50:54;99710.47;;;13.06;99.93
13800;BME280;6971;50.028;9.258;2023-07-13T21:55:58;99720.53;;;12.85;100.00
13800;BME280;6971;50.028;9.258;2023-07-13T22:01:00;99724.59;;;12.76;100.00
13800;BME280;6971;50.028;9.258;2023-07-13T22:06:03;99717.09;;;12.69;100.00
13800;BME280;6971;50.028;9.258;2023-07-13T22:11:16;99723.66;;;12.77;100.00
13800;BME280;6971;50.028;9.258;2023-07-13T22:16:25;99717.69;;;12.74;100.00
13800;BME280;6971;50.028;9.258;2023-07-13T22:21:28;99720.88;;;12.64;100.00
13800;BME280;6971;50.028;9.258;2023-07-13T22:26:33;99712.09;;;12.64;100.00
13800;BME280;6971;50.028;9.258;2023-07-13T22:31:33;99713.13;;;12.61;100.00
13800;BME280;6971;50.028;9.258;2023-07-13T22:36:34;99712.94;;;12.64;100.00
13800;BME280;6971;50.028;9.258;2023-07-13T22:41:34;99711.59;;;12.57;100.00
13800;BME280;6971;50.028;9.258;2023-07-13T22:46:35;99722.16;;;12.57;100.00
13800;BME280;6971;50.028;9.258;2023-07-13T22:51:36;99727.97;;;12.48;100.00
13800;BME280;6971;50.028;9.258;2023-07-13T22:56:36;99717.25;;;12.35;100.00
13800;BME280;6971;50.028;9.258;2023-07-13T23:01:38;99715.03;;;12.27;100.00
13800;BME280;6971;50.028;9.258;2023-07-13T23:06:39;99716.31;;;12.20;100.00
13800;BME280;6971;50.028;9.258;2023-07-13T23:11:39;99714.97;;;12.12;100.00
13800;BME280;6971;50.028;9.258;2023-07-13T23:16:40;99706.53;;;12.06;100.00
13800;BME280;6971;50.028;9.258;2023-07-13T23:21:40;99695.50;;;11.97;100.00
13800;BME280;6971;50.028;9.258;2023-07-13T23:26:40;99714.06;;;11.80;100.00
13800;BME280;6971;50.028;9.258;2023-07-13T23:31:41;99709.16;;;11.90;100.00
13800;BME280;6971;50.028;9.258;2023-07-13T23:36:42;99706.41;;;11.91;100.00
13800;BME280;6971;50.028;9.258;2023-07-13T23:41:42;99705.13;;;11.82;100.00
13800;BME280;6971;50.028;9.258;2023-07-13T23:46:48;99700.69;;;11.67;100.00
13800;BME280;6971;50.028;9.258;2023-07-13T23:51:51;99699.47;;;11.56;100.00
13800;BME280;6971;50.028;9.258;2023-07-13T23:56:52;99700.06;;;11.45;100.00
